createdAt,value
2018-05-01T00:00:06.728Z,0.47
2018-05-01T00:02:34.166Z,0.70
2018-05-01T00:05:01.639Z,0.60
2018-05-01T00:07:29.221Z,0.77
2018-05-01T00:09:57.302Z,0.70
2018-05-01T00:12:24.819Z,0.50
2018-05-01T00:17:26.910Z,0.50
2018-05-01T00:19:54.340Z,0.40
2018-05-01T00:22:21.815Z,0.50
2018-05-01T00:24:49.297Z,0.60
2018-05-01T00:27:16.754Z,0.60
2018-05-01T00:29:44.218Z,0.40
2018-05-01T00:32:11.666Z,0.50
2018-05-01T00:34:39.106Z,0.40
2018-05-01T00:37:06.539Z,0.40
2018-05-01T00:39:33.978Z,0.60
2018-05-01T00:42:01.422Z,0.40
2018-05-01T00:44:28.952Z,0.60
2018-05-01T00:46:56.382Z,0.97
2018-05-01T00:49:23.819Z,0.50
2018-05-01T00:51:51.290Z,0.40
2018-05-01T00:54:18.721Z,0.63
2018-05-01T00:56:46.162Z,0.53
2018-05-01T00:59:13.594Z,0.50
2018-05-01T01:01:41.074Z,0.60
2018-05-01T01:04:08.497Z,0.50
2018-05-01T01:06:35.937Z,0.53
2018-05-01T01:09:03.355Z,0.50
2018-05-01T01:11:30.800Z,0.50
2018-05-01T01:13:58.235Z,0.50
2018-05-01T01:16:25.686Z,0.50
2018-05-01T01:18:53.131Z,0.40
2018-05-01T01:21:20.579Z,0.60
2018-05-01T01:23:48.013Z,0.87
2018-05-01T01:26:15.458Z,0.50
2018-05-01T01:28:42.942Z,0.50
2018-05-01T01:31:10.369Z,0.57
2018-05-01T01:33:37.815Z,0.43
2018-05-01T01:36:04.784Z,0.40
2018-05-01T01:38:31.701Z,0.50
2018-05-01T01:40:58.583Z,0.57
2018-05-01T01:43:25.477Z,0.70
2018-05-01T01:45:52.386Z,0.80
2018-05-01T01:48:19.387Z,0.90
2018-05-01T01:50:46.287Z,0.97
2018-05-01T01:53:13.188Z,0.93
2018-05-01T01:55:40.118Z,0.80
2018-05-01T01:58:07.082Z,1.13
2018-05-01T02:00:34.015Z,1.03
2018-05-01T02:03:00.913Z,1.30
2018-05-01T02:05:27.880Z,0.83
2018-05-01T02:07:54.805Z,1.13
2018-05-01T02:10:21.726Z,1.10
2018-05-01T02:12:48.614Z,1.20
2018-05-01T02:15:15.513Z,1.30
2018-05-01T02:17:42.458Z,1.10
2018-05-01T02:20:09.361Z,1.20
2018-05-01T02:22:36.260Z,1.23
2018-05-01T02:25:03.156Z,1.20
2018-05-01T02:27:30.066Z,1.10
2018-05-01T02:29:57.041Z,1.30
2018-05-01T02:32:23.941Z,1.33
2018-05-01T02:34:50.822Z,1.40
2018-05-01T02:37:17.726Z,1.53
2018-05-01T02:39:44.612Z,1.27
2018-05-01T02:42:11.612Z,1.60
2018-05-01T02:44:38.496Z,1.30
2018-05-01T02:47:05.417Z,1.43
2018-05-01T02:49:32.331Z,1.40
2018-05-01T02:51:59.276Z,1.60
2018-05-01T02:54:26.177Z,1.67
2018-05-01T02:56:53.082Z,1.50
2018-05-01T02:59:19.985Z,1.50
2018-05-01T03:01:46.945Z,1.60
2018-05-01T03:04:13.850Z,1.23
2018-05-01T03:06:40.799Z,1.60
2018-05-01T03:09:07.719Z,1.30
2018-05-01T03:11:34.615Z,1.40
2018-05-01T03:14:01.506Z,1.30
2018-05-01T03:16:28.418Z,1.70
2018-05-01T03:18:55.321Z,1.60
2018-05-01T03:21:22.427Z,1.23
2018-05-01T03:23:49.381Z,1.43
2018-05-01T03:26:16.280Z,1.47
2018-05-01T03:28:43.156Z,1.20
2018-05-01T03:31:10.053Z,1.30
2018-05-01T03:33:36.979Z,1.00
2018-05-01T03:36:03.881Z,1.20
2018-05-01T03:38:30.939Z,1.30
2018-05-01T03:40:57.839Z,1.23
2018-05-01T03:43:24.785Z,1.10
2018-05-01T03:45:51.681Z,1.30
2018-05-01T03:48:18.591Z,1.23
2018-05-01T03:50:45.481Z,1.00
2018-05-01T03:53:12.397Z,1.37
2018-05-01T03:55:39.288Z,1.10
2018-05-01T03:58:06.181Z,1.20
2018-05-01T04:00:33.123Z,1.10
2018-05-01T04:03:00.000Z,0.90
2018-05-01T04:05:26.895Z,0.80
2018-05-01T04:07:53.818Z,0.83
2018-05-01T04:10:20.722Z,0.90
2018-05-01T04:12:47.618Z,0.80
2018-05-01T04:15:14.559Z,0.97
2018-05-01T04:17:41.454Z,0.90
2018-05-01T04:20:08.366Z,0.80
2018-05-01T04:22:35.262Z,0.80
2018-05-01T04:25:02.353Z,0.80
2018-05-01T04:27:29.247Z,0.90
2018-05-01T04:29:56.209Z,0.80
2018-05-01T04:32:23.150Z,0.80
2018-05-01T04:34:50.056Z,0.87
2018-05-01T04:37:16.942Z,0.97
2018-05-01T04:39:43.866Z,0.90
2018-05-01T04:42:10.825Z,0.90
2018-05-01T04:44:37.721Z,0.90
2018-05-01T04:47:04.613Z,1.10
2018-05-01T04:49:31.511Z,1.20
2018-05-01T04:51:58.402Z,0.90
2018-05-01T04:54:25.357Z,1.00
2018-05-01T04:56:52.236Z,1.00
2018-05-01T04:59:19.125Z,1.20
2018-05-01T05:01:46.033Z,1.20
2018-05-01T05:04:12.915Z,0.90
2018-05-01T05:06:39.860Z,1.00
2018-05-01T05:09:06.817Z,0.90
2018-05-01T05:11:33.719Z,0.80
2018-05-01T05:14:00.674Z,1.00
2018-05-01T05:16:27.659Z,1.00
2018-05-01T05:18:54.597Z,1.03
2018-05-01T05:21:21.596Z,0.80
2018-05-01T05:23:48.480Z,1.00
2018-05-01T05:26:15.388Z,1.33
2018-05-01T05:28:42.440Z,1.10
2018-05-01T05:31:09.341Z,1.17
2018-05-01T05:33:36.237Z,0.97
2018-05-01T05:36:03.145Z,1.07
2018-05-01T05:38:30.066Z,1.10
2018-05-01T05:40:57.004Z,1.00
2018-05-01T05:43:23.903Z,1.00
2018-05-01T05:45:50.797Z,1.00
2018-05-01T05:48:17.701Z,1.10
2018-05-01T05:50:44.581Z,1.00
2018-05-01T05:53:11.530Z,1.00
2018-05-01T05:55:38.465Z,0.97
2018-05-01T05:58:05.413Z,1.20
2018-05-01T06:00:32.969Z,0.90
2018-05-01T06:02:59.852Z,0.90
2018-05-01T06:05:26.737Z,0.80
2018-05-01T06:07:53.916Z,1.07
2018-05-01T06:10:20.814Z,1.00
2018-05-01T06:12:47.765Z,0.93
2018-05-01T06:15:14.773Z,0.80
2018-05-01T06:17:41.656Z,0.93
2018-05-01T06:20:08.630Z,0.90
2018-05-01T06:22:35.739Z,1.00
2018-05-01T06:25:06.367Z,1.00
2018-05-01T06:27:33.254Z,1.10
2018-05-01T06:30:00.197Z,1.10
2018-05-01T06:32:27.215Z,1.10
2018-05-01T06:34:55.229Z,1.03
2018-05-01T06:37:22.315Z,1.20
2018-05-01T06:39:49.372Z,1.47
2018-05-01T06:42:16.261Z,0.97
2018-05-01T06:44:43.168Z,1.10
2018-05-01T06:47:10.096Z,1.00
2018-05-01T06:49:37.498Z,1.03
2018-05-01T06:52:04.457Z,1.07
2018-05-01T06:54:31.336Z,0.93
2018-05-01T06:56:58.241Z,0.80
2018-05-01T06:59:25.190Z,0.87
2018-05-01T07:01:53.091Z,0.80
2018-05-01T07:04:20.090Z,1.00
2018-05-01T07:06:47.010Z,0.97
2018-05-01T07:09:13.905Z,1.00
2018-05-01T07:11:40.799Z,0.90
2018-05-01T07:14:07.700Z,1.03
2018-05-01T07:16:34.686Z,0.80
2018-05-01T07:19:01.679Z,0.90
2018-05-01T07:21:28.572Z,1.00
2018-05-01T07:23:55.526Z,1.50
2018-05-01T07:26:22.472Z,0.80
2018-05-01T07:28:49.544Z,1.13
2018-05-01T07:31:16.489Z,1.00
2018-05-01T07:33:43.437Z,1.00
2018-05-01T07:36:10.339Z,2.90
2018-05-01T07:38:37.269Z,1.50
2018-05-01T07:41:04.166Z,0.97
2018-05-01T07:43:31.074Z,1.00
2018-05-01T07:45:57.965Z,1.00
2018-05-01T07:48:25.130Z,1.43
2018-05-01T07:50:52.085Z,1.00
2018-05-01T07:53:18.980Z,1.20
2018-05-01T07:55:45.917Z,0.90
2018-05-01T07:58:12.890Z,1.00
2018-05-01T08:00:40.288Z,1.03
2018-05-01T08:03:07.258Z,1.17
2018-05-01T08:05:34.239Z,1.00
2018-05-01T08:08:01.142Z,3.07
2018-05-01T08:10:28.037Z,1.20
2018-05-01T08:12:55.069Z,1.00
2018-05-01T08:15:21.962Z,0.80
2018-05-01T08:17:48.887Z,0.90
2018-05-01T08:20:15.841Z,0.87
2018-05-01T08:22:42.772Z,0.90
2018-05-01T08:25:09.677Z,0.90
2018-05-01T08:27:37.070Z,1.00
2018-05-01T08:30:03.982Z,0.73
2018-05-01T08:32:30.881Z,0.70
2018-05-01T08:34:57.857Z,0.70
2018-05-01T08:37:24.759Z,1.00
2018-05-01T08:39:51.662Z,0.90
2018-05-01T08:42:18.589Z,0.70
2018-05-01T08:44:45.530Z,0.80
2018-05-01T08:47:12.411Z,0.87
2018-05-01T08:49:39.357Z,0.97
2018-05-01T08:52:06.274Z,0.80
2018-05-01T08:54:33.202Z,1.40
2018-05-01T08:57:00.105Z,1.03
2018-05-01T08:59:27.028Z,0.60
2018-05-01T09:01:53.921Z,0.80
2018-05-01T09:04:20.826Z,1.00
2018-05-01T09:06:47.801Z,0.70
2018-05-01T09:09:14.698Z,0.77
2018-05-01T09:11:41.594Z,0.73
2018-05-01T09:14:08.506Z,0.80
2018-05-01T09:16:35.411Z,0.60
2018-05-01T09:19:02.308Z,0.70
2018-05-01T09:21:29.250Z,0.70
2018-05-01T09:23:56.270Z,0.80
2018-05-01T09:26:23.201Z,0.70
2018-05-01T09:28:50.481Z,0.70
2018-05-01T09:31:17.390Z,1.10
2018-05-01T09:33:44.294Z,0.70
2018-05-01T09:36:11.305Z,0.50
2018-05-01T09:38:38.201Z,0.80
2018-05-01T09:41:05.133Z,0.80
2018-05-01T09:43:32.140Z,0.80
2018-05-01T09:45:59.032Z,0.70
2018-05-01T09:48:25.954Z,0.50
2018-05-01T09:50:52.854Z,0.67
2018-05-01T09:53:20.378Z,0.80
2018-05-01T09:55:47.810Z,0.80
2018-05-01T09:58:15.258Z,0.80
2018-05-01T10:00:43.482Z,0.70
2018-05-01T10:03:10.934Z,0.80
2018-05-01T10:05:38.509Z,0.80
2018-05-01T10:08:05.973Z,0.80
2018-05-01T10:10:33.392Z,0.80
2018-05-01T10:13:00.838Z,0.67
2018-05-01T10:15:28.347Z,0.80
2018-05-01T10:17:55.766Z,0.80
2018-05-01T10:20:23.225Z,1.10
2018-05-01T10:22:50.736Z,0.80
2018-05-01T10:25:18.228Z,0.90
2018-05-01T10:27:45.770Z,1.00
2018-05-01T10:30:13.213Z,0.80
2018-05-01T10:32:40.656Z,1.00
2018-05-01T10:35:08.086Z,1.20
2018-05-01T10:37:35.527Z,0.80
2018-05-01T10:40:02.999Z,1.00
2018-05-01T10:42:30.451Z,0.90
2018-05-01T10:44:57.931Z,0.80
2018-05-01T10:47:25.375Z,0.70
2018-05-01T10:49:52.810Z,1.30
2018-05-01T10:52:20.250Z,1.20
2018-05-01T10:54:47.779Z,1.00
2018-05-01T10:57:15.245Z,0.90
2018-05-01T10:59:42.698Z,1.30
2018-05-01T11:02:10.124Z,1.20
2018-05-01T11:04:37.554Z,1.00
2018-05-01T11:07:04.987Z,0.93
2018-05-01T11:09:32.551Z,1.00
2018-05-01T11:12:00.072Z,1.00
2018-05-01T11:14:27.437Z,1.37
2018-05-01T11:16:54.875Z,0.97
2018-05-01T11:19:22.302Z,1.00
2018-05-01T11:21:49.750Z,0.97
2018-05-01T11:24:17.283Z,1.07
2018-05-01T11:26:44.712Z,0.80
2018-05-01T11:29:12.152Z,0.70
2018-05-01T11:31:39.578Z,0.80
2018-05-01T11:34:07.022Z,0.90
2018-05-01T11:36:34.445Z,0.90
2018-05-01T11:39:01.901Z,0.80
2018-05-01T11:41:29.389Z,0.87
2018-05-01T11:43:56.818Z,0.90
2018-05-01T11:46:24.326Z,0.97
2018-05-01T11:48:51.709Z,0.60
2018-05-01T11:51:19.177Z,0.93
2018-05-01T11:53:46.711Z,1.30
2018-05-01T11:56:14.184Z,2.10
2018-05-01T11:58:41.659Z,1.10
2018-05-01T12:01:09.140Z,0.87
2018-05-01T12:03:36.561Z,1.00
2018-05-01T12:06:04.025Z,1.00
2018-05-01T12:08:31.485Z,1.10
2018-05-01T12:10:58.989Z,1.00
2018-05-01T12:13:26.446Z,1.00
2018-05-01T12:15:53.896Z,0.93
2018-05-01T12:18:21.430Z,0.80
2018-05-01T12:20:48.909Z,1.10
2018-05-01T12:23:16.360Z,1.40
2018-05-01T12:25:43.869Z,1.37
2018-05-01T12:28:11.310Z,1.30
2018-05-01T12:30:38.779Z,1.20
2018-05-01T12:33:06.287Z,1.30
2018-05-01T12:35:33.852Z,0.97
2018-05-01T12:38:01.319Z,0.80
2018-05-01T12:40:28.853Z,0.90
2018-05-01T12:42:56.286Z,0.80
2018-05-01T12:45:23.769Z,0.80
2018-05-01T12:47:51.216Z,0.90
2018-05-01T12:50:18.686Z,0.80
2018-05-01T12:52:46.145Z,1.00
2018-05-01T12:55:13.602Z,0.87
2018-05-01T12:57:41.225Z,8.00
2018-05-01T13:00:08.647Z,1.30
2018-05-01T13:02:36.092Z,1.37
2018-05-01T13:05:03.615Z,0.97
2018-05-01T13:07:30.987Z,0.90
2018-05-01T13:09:58.432Z,1.20
2018-05-01T13:12:25.902Z,1.00
2018-05-01T13:14:53.347Z,1.13
2018-05-01T13:17:20.977Z,0.83
2018-05-01T13:19:48.440Z,0.80
2018-05-01T13:22:15.860Z,0.93
2018-05-01T13:24:43.301Z,0.80
2018-05-01T13:27:10.739Z,1.07
2018-05-01T13:29:38.192Z,1.00
2018-05-01T13:32:05.632Z,1.03
2018-05-01T13:34:33.059Z,4.47
2018-05-01T13:37:00.571Z,1.50
2018-05-01T13:39:28.023Z,0.80
2018-05-01T13:41:55.595Z,0.90
2018-05-01T13:44:23.047Z,0.77
2018-05-01T13:46:50.481Z,0.98
2018-05-01T13:49:17.908Z,1.10
2018-05-01T13:51:45.356Z,0.77
2018-05-01T13:54:12.804Z,0.60
2018-05-01T13:56:40.227Z,0.62
2018-05-01T13:59:07.725Z,0.60
2018-05-01T14:01:35.183Z,0.80
2018-05-01T14:04:02.621Z,0.75
2018-05-01T14:06:30.347Z,0.73
2018-05-01T14:08:57.732Z,0.43
2018-05-01T14:11:25.186Z,0.68
2018-05-01T14:13:52.627Z,0.57
2018-05-01T14:16:20.090Z,0.57
2018-05-01T14:18:47.648Z,0.62
2018-05-01T14:21:15.081Z,0.52
2018-05-01T14:23:42.558Z,0.32
2018-05-01T14:26:10.117Z,0.77
2018-05-01T14:28:37.592Z,0.65
2018-05-01T14:31:05.043Z,0.82
2018-05-01T14:33:32.504Z,0.80
2018-05-01T14:35:59.965Z,0.70
2018-05-01T14:38:27.515Z,0.60
2018-05-01T14:40:55.007Z,0.62
2018-05-01T14:43:22.599Z,0.98
2018-05-01T14:45:50.088Z,1.08
2018-05-01T14:48:17.546Z,0.75
2018-05-01T14:50:44.997Z,0.60
2018-05-01T14:53:12.436Z,0.80
2018-05-01T14:55:39.926Z,0.80
2018-05-01T14:58:07.353Z,0.60
2018-05-01T15:00:34.823Z,0.60
2018-05-01T15:03:04.197Z,0.70
2018-05-01T15:05:31.679Z,0.70
2018-05-01T15:07:59.121Z,0.90
2018-05-01T15:10:26.696Z,0.50
2018-05-01T15:12:54.269Z,0.70
2018-05-01T15:15:21.720Z,0.50
2018-05-01T15:17:49.176Z,0.50
2018-05-01T15:20:16.633Z,0.50
2018-05-01T15:22:44.102Z,0.70
2018-05-01T15:25:11.554Z,0.50
2018-05-01T15:27:39.101Z,1.12
2018-05-01T15:30:06.693Z,0.55
2018-05-01T15:32:34.022Z,0.60
2018-05-01T15:35:01.482Z,0.95
2018-05-01T15:37:29.391Z,0.60
2018-05-01T15:39:56.768Z,0.82
2018-05-01T15:42:24.183Z,0.60
2018-05-01T15:44:51.632Z,0.50
2018-05-01T15:47:19.170Z,0.32
2018-05-01T15:49:46.598Z,0.37
2018-05-01T15:52:14.016Z,0.60
2018-05-01T15:54:41.459Z,0.60
2018-05-01T15:57:08.897Z,0.70
2018-05-01T15:59:36.326Z,3.00
2018-05-01T16:02:03.799Z,0.80
2018-05-01T16:04:31.217Z,0.50
2018-05-01T16:06:58.891Z,0.70
2018-05-01T16:09:26.316Z,0.77
2018-05-01T16:11:53.738Z,0.70
2018-05-01T16:14:21.269Z,0.50
2018-05-01T16:16:48.617Z,0.40
2018-05-01T16:19:16.085Z,0.40
2018-05-01T16:21:43.534Z,0.40
2018-05-01T16:24:11.026Z,0.60
2018-05-01T16:26:38.486Z,0.68
2018-05-01T16:29:05.941Z,0.50
2018-05-01T16:31:33.364Z,0.40
2018-05-01T16:34:00.918Z,0.20
2018-05-01T16:36:28.339Z,0.40
2018-05-01T16:38:55.779Z,0.43
2018-05-01T16:41:23.308Z,0.40
2018-05-01T16:43:50.794Z,0.40
2018-05-01T16:46:18.253Z,0.57
2018-05-01T16:48:45.833Z,0.55
2018-05-01T16:51:13.361Z,0.50
2018-05-01T16:53:40.790Z,0.52
2018-05-01T16:56:08.380Z,0.40
2018-05-01T16:58:35.810Z,0.50
2018-05-01T17:01:03.323Z,0.50
2018-05-01T17:03:30.816Z,0.50
2018-05-01T17:05:58.337Z,0.60
2018-05-01T17:08:25.918Z,0.60
2018-05-01T17:10:53.401Z,0.40
2018-05-01T17:13:20.852Z,0.70
2018-05-01T17:15:48.281Z,0.50
2018-05-01T17:18:15.720Z,0.80
2018-05-01T17:20:43.227Z,0.43
2018-05-01T17:23:10.677Z,0.70
2018-05-01T17:25:38.294Z,0.50
2018-05-01T17:28:06.028Z,0.45
2018-05-01T17:30:33.483Z,0.57
2018-05-01T17:33:00.965Z,0.60
2018-05-01T17:35:28.439Z,0.63
2018-05-01T17:37:55.978Z,0.70
2018-05-01T17:40:23.546Z,0.80
2018-05-01T17:42:50.991Z,0.63
2018-05-01T17:45:18.793Z,0.70
2018-05-01T17:47:46.271Z,0.87
2018-05-01T17:50:13.782Z,1.07
2018-05-01T17:52:41.237Z,0.90
2018-05-01T17:55:08.685Z,0.80
2018-05-01T17:57:36.152Z,0.63
2018-05-01T18:00:03.607Z,1.00
2018-05-01T18:02:31.149Z,1.10
2018-05-01T18:04:58.897Z,1.00
2018-05-01T18:07:26.350Z,1.10
2018-05-01T18:09:53.846Z,2.17
2018-05-01T18:12:21.302Z,2.03
2018-05-01T18:14:48.757Z,1.40
2018-05-01T18:17:16.333Z,1.00
2018-05-01T18:19:43.761Z,1.20
2018-05-01T18:22:12.450Z,1.17
2018-05-01T18:24:40.967Z,0.90
2018-05-01T18:27:09.729Z,1.10
2018-05-01T18:29:39.338Z,1.33
2018-05-01T18:32:07.038Z,1.30
2018-05-01T18:34:34.517Z,1.10
2018-05-01T18:37:02.005Z,1.30
2018-05-01T18:39:29.450Z,1.10
2018-05-01T18:41:57.191Z,1.23
2018-05-01T18:44:24.670Z,1.53
2018-05-01T18:46:52.150Z,1.50
2018-05-01T18:49:19.589Z,1.80
2018-05-01T18:51:47.023Z,2.00
2018-05-01T18:54:14.468Z,1.73
2018-05-01T18:56:41.918Z,2.60
2018-05-01T18:59:09.639Z,1.77
2018-05-01T19:01:37.112Z,2.07
2018-05-01T19:04:04.654Z,1.80
2018-05-01T19:06:32.100Z,1.17
2018-05-01T19:08:59.539Z,1.33
2018-05-01T19:11:27.317Z,1.43
2018-05-01T19:13:54.767Z,1.80
2018-05-01T19:16:22.284Z,1.87
2018-05-01T19:18:49.782Z,1.50
2018-05-01T19:21:17.199Z,1.37
2018-05-01T19:23:44.680Z,1.27
2018-05-01T19:26:12.362Z,1.40
2018-05-01T19:28:39.805Z,1.70
2018-05-01T19:31:07.289Z,1.33
2018-05-01T19:33:34.871Z,1.60
2018-05-01T19:36:02.502Z,1.30
2018-05-01T19:38:29.966Z,1.40
2018-05-01T19:40:57.457Z,1.63
2018-05-01T19:43:25.201Z,1.63
2018-05-01T19:45:53.157Z,1.40
2018-05-01T19:48:20.588Z,1.57
2018-05-01T19:50:48.153Z,1.63
2018-05-01T19:53:15.510Z,1.90
2018-05-01T19:55:42.941Z,2.13
2018-05-01T19:58:10.636Z,1.70
2018-05-01T20:00:38.105Z,1.80
2018-05-01T20:03:05.614Z,1.90
2018-05-01T20:05:33.029Z,1.77
2018-05-01T20:08:00.458Z,2.10
2018-05-01T20:10:27.952Z,1.43
2018-05-01T20:12:55.409Z,1.87
2018-05-01T20:15:22.992Z,1.60
2018-05-01T20:17:50.857Z,1.63
2018-05-01T20:20:18.346Z,1.83
2018-05-01T20:22:45.827Z,1.50
2018-05-01T20:25:13.270Z,1.50
2018-05-01T20:27:40.701Z,1.43
2018-05-01T20:30:08.215Z,1.40
2018-05-01T20:32:35.655Z,1.43
2018-05-01T20:35:03.218Z,1.60
2018-05-01T20:37:30.643Z,1.67
2018-05-01T20:39:58.112Z,1.77
2018-05-01T20:42:25.548Z,1.83
2018-05-01T20:44:53.101Z,1.60
2018-05-01T20:47:20.538Z,1.50
2018-05-01T20:49:48.006Z,1.57
2018-05-01T20:52:15.561Z,2.00
2018-05-01T20:54:43.161Z,2.27
2018-05-01T20:57:10.597Z,2.57
2018-05-01T20:59:38.114Z,2.80
2018-05-01T21:02:05.532Z,2.13
2018-05-01T21:04:32.962Z,1.83
2018-05-01T21:07:00.560Z,2.27
2018-05-01T21:09:27.984Z,2.33
2018-05-01T21:11:55.511Z,1.90
2018-05-01T21:14:22.980Z,2.13
2018-05-01T21:16:50.504Z,1.90
2018-05-01T21:19:17.957Z,1.70
2018-05-01T21:21:45.528Z,1.67
2018-05-01T21:24:12.993Z,1.67
2018-05-01T21:26:40.449Z,1.90
2018-05-01T21:29:07.930Z,1.87
2018-05-01T21:31:35.450Z,1.97
2018-05-01T21:34:02.894Z,1.80
2018-05-01T21:36:30.366Z,1.63
2018-05-01T21:38:57.832Z,1.60
2018-05-01T21:41:25.264Z,1.63
2018-05-01T21:43:52.731Z,1.93
2018-05-01T21:46:20.172Z,1.80
2018-05-01T21:48:47.621Z,1.80
2018-05-01T21:51:16.068Z,1.67
2018-05-01T21:53:43.623Z,1.93
2018-05-01T21:56:11.175Z,1.50
2018-05-01T21:58:38.691Z,1.80
2018-05-01T22:01:06.473Z,1.70
2018-05-01T22:03:34.003Z,2.03
2018-05-01T22:06:01.461Z,2.03
2018-05-01T22:08:28.935Z,2.13
2018-05-01T22:10:56.411Z,2.37
2018-05-01T22:13:23.835Z,2.47
2018-05-01T22:15:51.346Z,2.43
2018-05-01T22:18:18.879Z,2.50
2018-05-01T22:20:46.346Z,2.50
2018-05-01T22:23:13.761Z,2.20
2018-05-01T22:25:41.192Z,2.30
2018-05-01T22:28:08.684Z,2.37
2018-05-01T22:30:36.121Z,2.70
2018-05-01T22:33:03.563Z,2.70
2018-05-01T22:35:31.027Z,2.17
2018-05-01T22:37:58.465Z,2.53
2018-05-01T22:40:25.918Z,2.30
2018-05-01T22:42:53.358Z,2.67
2018-05-01T22:45:20.817Z,2.53
2018-05-01T22:47:48.304Z,2.73
2018-05-01T22:50:15.767Z,2.60
2018-05-01T22:52:43.235Z,2.10
2018-05-01T22:55:10.764Z,2.63
2018-05-01T22:57:38.222Z,2.20
2018-05-01T23:00:05.853Z,2.03
2018-05-01T23:02:33.293Z,2.20
2018-05-01T23:05:00.737Z,2.03
2018-05-01T23:07:28.857Z,2.20
2018-05-01T23:09:56.366Z,2.13
2018-05-01T23:12:23.945Z,2.20
2018-05-01T23:14:51.536Z,2.00
2018-05-01T23:17:18.982Z,2.13
2018-05-01T23:19:46.439Z,2.47
2018-05-01T23:22:13.888Z,1.87
2018-05-01T23:24:41.317Z,2.00
2018-05-01T23:27:08.787Z,2.00
2018-05-01T23:29:36.267Z,2.47
2018-05-01T23:32:03.721Z,2.20
2018-05-01T23:34:31.178Z,2.23
2018-05-01T23:36:58.659Z,2.00
2018-05-01T23:39:26.098Z,3.03
2018-05-01T23:41:53.512Z,1.97
2018-05-01T23:44:20.977Z,2.47
2018-05-01T23:46:48.409Z,2.00
2018-05-01T23:49:15.854Z,1.67
2018-05-01T23:51:43.271Z,2.00
2018-05-01T23:54:10.738Z,2.03
2018-05-01T23:56:38.168Z,2.13
2018-05-01T23:59:06.058Z,2.37
